sensor_id;sensor_type;location;lat;lon;timestamp;P1;durP1;ratioP1;P2;durP2;ratioP2
32228;SDS011;18717;48.034;11.186;2022-10-03T00:00:39;10.80;;;10.13;;
32228;SDS011;18717;48.034;11.186;2022-10-03T00:03:24;11.13;;;10.32;;
32228;SDS011;18717;48.034;11.186;2022-10-03T00:06:04;11.63;;;10.82;;
32228;SDS011;18717;48.034;11.186;2022-10-03T00:11:26;11.05;;;10.27;;
32228;SDS011;18717;48.034;11.186;2022-10-03T00:14:00;11.32;;;10.52;;
32228;SDS011;18717;48.034;11.186;2022-10-03T00:16:34;11.55;;;10.63;;
32228;SDS011;18717;48.034;11.186;2022-10-03T00:19:07;11.07;;;10.07;;
32228;SDS011;18717;48.034;11.186;2022-10-03T00:21:47;11.73;;;10.63;;
32228;SDS011;18717;48.034;11.186;2022-10-03T00:24:24;11.35;;;10.40;;
32228;SDS011;18717;48.034;11.186;2022-10-03T00:27:02;12.07;;;11.10;;
32228;SDS011;18717;48.034;11.186;2022-10-03T00:29:41;11.32;;;10.43;;
32228;SDS011;18717;48.034;11.186;2022-10-03T00:32:22;11.85;;;10.85;;
32228;SDS011;18717;48.034;11.186;2022-10-03T00:35:00;12.75;;;11.48;;
32228;SDS011;18717;48.034;11.186;2022-10-03T00:37:34;11.55;;;10.73;;
32228;SDS011;18717;48.034;11.186;2022-10-03T00:43:27;12.02;;;10.80;;
32228;SDS011;18717;48.034;11.186;2022-10-03T00:49:11;13.20;;;12.15;;
32228;SDS011;18717;48.034;11.186;2022-10-03T00:52:00;12.00;;;11.10;;
32228;SDS011;18717;48.034;11.186;2022-10-03T00:54:36;12.13;;;10.95;;
32228;SDS011;18717;48.034;11.186;2022-10-03T00:57:19;12.73;;;11.55;;
32228;SDS011;18717;48.034;11.186;2022-10-03T01:00:10;11.90;;;10.93;;
32228;SDS011;18717;48.034;11.186;2022-10-03T01:02:45;13.75;;;11.40;;
32228;SDS011;18717;48.034;11.186;2022-10-03T01:05:19;11.60;;;10.73;;
32228;SDS011;18717;48.034;11.186;2022-10-03T01:10:55;12.23;;;11.02;;
32228;SDS011;18717;48.034;11.186;2022-10-03T01:13:30;11.93;;;10.80;;
32228;SDS011;18717;48.034;11.186;2022-10-03T01:16:08;13.00;;;11.65;;
32228;SDS011;18717;48.034;11.186;2022-10-03T01:18:43;11.88;;;10.98;;
32228;SDS011;18717;48.034;11.186;2022-10-03T01:21:23;11.60;;;10.60;;
32228;SDS011;18717;48.034;11.186;2022-10-03T01:27:17;12.10;;;11.10;;
32228;SDS011;18717;48.034;11.186;2022-10-03T01:29:58;11.73;;;10.73;;
32228;SDS011;18717;48.034;11.186;2022-10-03T01:32:46;12.45;;;11.23;;
32228;SDS011;18717;48.034;11.186;2022-10-03T01:35:29;12.75;;;11.35;;
32228;SDS011;18717;48.034;11.186;2022-10-03T01:38:04;12.73;;;11.68;;
32228;SDS011;18717;48.034;11.186;2022-10-03T01:40:39;12.30;;;11.10;;
32228;SDS011;18717;48.034;11.186;2022-10-03T01:43:12;16.30;;;11.80;;
32228;SDS011;18717;48.034;11.186;2022-10-03T01:45:51;13.52;;;11.50;;
32228;SDS011;18717;48.034;11.186;2022-10-03T01:48:26;12.18;;;11.18;;
32228;SDS011;18717;48.034;11.186;2022-10-03T01:51:00;13.73;;;12.20;;
32228;SDS011;18717;48.034;11.186;2022-10-03T01:53:37;13.15;;;11.93;;
32228;SDS011;18717;48.034;11.186;2022-10-03T01:56:14;13.17;;;11.87;;
32228;SDS011;18717;48.034;11.186;2022-10-03T01:58:49;12.93;;;11.70;;
32228;SDS011;18717;48.034;11.186;2022-10-03T02:01:24;13.05;;;11.80;;
32228;SDS011;18717;48.034;11.186;2022-10-03T02:03:56;13.25;;;12.02;;
32228;SDS011;18717;48.034;11.186;2022-10-03T02:06:32;162.65;;;15.18;;
32228;SDS011;18717;48.034;11.186;2022-10-03T02:09:06;25.77;;;13.07;;
32228;SDS011;18717;48.034;11.186;2022-10-03T02:11:38;11.60;;;10.80;;
32228;SDS011;18717;48.034;11.186;2022-10-03T02:14:17;13.18;;;12.07;;
32228;SDS011;18717;48.034;11.186;2022-10-03T02:16:54;13.02;;;11.77;;
32228;SDS011;18717;48.034;11.186;2022-10-03T02:19:25;12.68;;;11.40;;
32228;SDS011;18717;48.034;11.186;2022-10-03T02:21:55;12.05;;;10.73;;
32228;SDS011;18717;48.034;11.186;2022-10-03T02:24:28;64.05;;;12.32;;
32228;SDS011;18717;48.034;11.186;2022-10-03T02:27:12;19.90;;;12.50;;
32228;SDS011;18717;48.034;11.186;2022-10-03T02:30:05;12.25;;;11.25;;
32228;SDS011;18717;48.034;11.186;2022-10-03T02:35:49;12.23;;;11.02;;
32228;SDS011;18717;48.034;11.186;2022-10-03T02:41:35;12.55;;;11.23;;
32228;SDS011;18717;48.034;11.186;2022-10-03T02:47:14;12.63;;;11.20;;
32228;SDS011;18717;48.034;11.186;2022-10-03T02:53:06;13.48;;;12.10;;
32228;SDS011;18717;48.034;11.186;2022-10-03T02:56:05;13.75;;;11.82;;
32228;SDS011;18717;48.034;11.186;2022-10-03T03:02:01;14.20;;;12.70;;
32228;SDS011;18717;48.034;11.186;2022-10-03T03:07:51;15.55;;;13.80;;
32228;SDS011;18717;48.034;11.186;2022-10-03T03:16:41;15.20;;;13.80;;
32228;SDS011;18717;48.034;11.186;2022-10-03T03:19:36;15.27;;;13.77;;
32228;SDS011;18717;48.034;11.186;2022-10-03T03:22:31;15.70;;;14.10;;
32228;SDS011;18717;48.034;11.186;2022-10-03T03:28:05;19.27;;;14.00;;
32228;SDS011;18717;48.034;11.186;2022-10-03T03:30:41;15.45;;;13.05;;
32228;SDS011;18717;48.034;11.186;2022-10-03T03:33:14;18.45;;;14.60;;
32228;SDS011;18717;48.034;11.186;2022-10-03T03:35:52;17.10;;;14.45;;
32228;SDS011;18717;48.034;11.186;2022-10-03T03:38:28;15.15;;;13.68;;
32228;SDS011;18717;48.034;11.186;2022-10-03T03:41:07;20.17;;;14.02;;
32228;SDS011;18717;48.034;11.186;2022-10-03T03:43:48;18.33;;;15.07;;
32228;SDS011;18717;48.034;11.186;2022-10-03T03:46:28;20.80;;;13.73;;
32228;SDS011;18717;48.034;11.186;2022-10-03T03:49:06;17.00;;;14.68;;
32228;SDS011;18717;48.034;11.186;2022-10-03T03:51:45;14.80;;;13.50;;
32228;SDS011;18717;48.034;11.186;2022-10-03T03:57:22;15.32;;;13.68;;
32228;SDS011;18717;48.034;11.186;2022-10-03T04:00:06;18.98;;;14.38;;
32228;SDS011;18717;48.034;11.186;2022-10-03T04:06:03;15.75;;;13.65;;
32228;SDS011;18717;48.034;11.186;2022-10-03T04:08:40;17.80;;;13.90;;
32228;SDS011;18717;48.034;11.186;2022-10-03T04:11:26;19.58;;;14.73;;
32228;SDS011;18717;48.034;11.186;2022-10-03T04:14:16;15.88;;;13.15;;
32228;SDS011;18717;48.034;11.186;2022-10-03T04:17:10;21.08;;;14.63;;
32228;SDS011;18717;48.034;11.186;2022-10-03T04:20:03;23.27;;;14.93;;
32228;SDS011;18717;48.034;11.186;2022-10-03T04:22:47;21.38;;;15.35;;
32228;SDS011;18717;48.034;11.186;2022-10-03T04:25:30;15.85;;;14.25;;
32228;SDS011;18717;48.034;11.186;2022-10-03T04:28:17;15.73;;;13.43;;
32228;SDS011;18717;48.034;11.186;2022-10-03T04:30:57;14.50;;;13.00;;
32228;SDS011;18717;48.034;11.186;2022-10-03T04:33:43;15.23;;;13.00;;
32228;SDS011;18717;48.034;11.186;2022-10-03T04:39:09;13.90;;;11.98;;
32228;SDS011;18717;48.034;11.186;2022-10-03T04:41:44;17.27;;;13.38;;
32228;SDS011;18717;48.034;11.186;2022-10-03T04:44:18;14.68;;;13.10;;
32228;SDS011;18717;48.034;11.186;2022-10-03T04:46:59;16.00;;;13.18;;
32228;SDS011;18717;48.034;11.186;2022-10-03T04:49:32;21.58;;;13.75;;
32228;SDS011;18717;48.034;11.186;2022-10-03T04:52:04;18.25;;;14.20;;
32228;SDS011;18717;48.034;11.186;2022-10-03T04:54:41;18.73;;;14.60;;
32228;SDS011;18717;48.034;11.186;2022-10-03T04:57:24;18.00;;;14.55;;
32228;SDS011;18717;48.034;11.186;2022-10-03T04:59:58;22.02;;;15.60;;
32228;SDS011;18717;48.034;11.186;2022-10-03T05:02:39;22.55;;;15.25;;
32228;SDS011;18717;48.034;11.186;2022-10-03T05:05:15;20.98;;;15.02;;
32228;SDS011;18717;48.034;11.186;2022-10-03T05:07:57;26.92;;;15.75;;
32228;SDS011;18717;48.034;11.186;2022-10-03T05:10:33;23.23;;;14.88;;
32228;SDS011;18717;48.034;11.186;2022-10-03T05:13:11;18.90;;;15.73;;
32228;SDS011;18717;48.034;11.186;2022-10-03T05:15:43;23.00;;;15.70;;
32228;SDS011;18717;48.034;11.186;2022-10-03T05:18:19;23.92;;;15.57;;
32228;SDS011;18717;48.034;11.186;2022-10-03T05:20:53;21.08;;;15.60;;
32228;SDS011;18717;48.034;11.186;2022-10-03T05:23:26;24.27;;;15.68;;
32228;SDS011;18717;48.034;11.186;2022-10-03T05:26:04;20.45;;;15.57;;
32228;SDS011;18717;48.034;11.186;2022-10-03T05:28:56;20.10;;;15.50;;
32228;SDS011;18717;48.034;11.186;2022-10-03T05:31:34;19.00;;;15.20;;
32228;SDS011;18717;48.034;11.186;2022-10-03T05:34:15;17.60;;;14.63;;
32228;SDS011;18717;48.034;11.186;2022-10-03T05:36:55;20.08;;;14.45;;
32228;SDS011;18717;48.034;11.186;2022-10-03T05:39:37;23.58;;;14.07;;
32228;SDS011;18717;48.034;11.186;2022-10-03T05:42:26;20.95;;;15.05;;
32228;SDS011;18717;48.034;11.186;2022-10-03T05:45:17;19.60;;;14.95;;
32228;SDS011;18717;48.034;11.186;2022-10-03T05:47:50;20.02;;;15.15;;
32228;SDS011;18717;48.034;11.186;2022-10-03T05:50:31;24.30;;;14.45;;
32228;SDS011;18717;48.034;11.186;2022-10-03T05:53:07;24.80;;;14.70;;
32228;SDS011;18717;48.034;11.186;2022-10-03T05:55:50;16.57;;;14.53;;
32228;SDS011;18717;48.034;11.186;2022-10-03T05:58:31;17.58;;;13.57;;
32228;SDS011;18717;48.034;11.186;2022-10-03T06:01:12;18.27;;;14.48;;
32228;SDS011;18717;48.034;11.186;2022-10-03T06:03:55;22.27;;;16.67;;
32228;SDS011;18717;48.034;11.186;2022-10-03T06:06:45;27.58;;;17.00;;
32228;SDS011;18717;48.034;11.186;2022-10-03T06:09:32;27.45;;;16.88;;
32228;SDS011;18717;48.034;11.186;2022-10-03T06:12:06;27.25;;;15.65;;
32228;SDS011;18717;48.034;11.186;2022-10-03T06:17:44;39.25;;;16.25;;
32228;SDS011;18717;48.034;11.186;2022-10-03T06:20:25;53.33;;;16.02;;
32228;SDS011;18717;48.034;11.186;2022-10-03T06:23:26;42.25;;;15.77;;
32228;SDS011;18717;48.034;11.186;2022-10-03T06:32:08;94.90;;;19.30;;
32228;SDS011;18717;48.034;11.186;2022-10-03T06:34:54;108.03;;;18.92;;
32228;SDS011;18717;48.034;11.186;2022-10-03T06:37:41;75.57;;;18.60;;
32228;SDS011;18717;48.034;11.186;2022-10-03T06:45:48;38.60;;;18.20;;
32228;SDS011;18717;48.034;11.186;2022-10-03T06:51:30;23.15;;;15.50;;
32228;SDS011;18717;48.034;11.186;2022-10-03T06:54:18;29.40;;;16.42;;
32228;SDS011;18717;48.034;11.186;2022-10-03T06:57:13;28.15;;;16.92;;
32228;SDS011;18717;48.034;11.186;2022-10-03T07:02:46;26.40;;;17.08;;
32228;SDS011;18717;48.034;11.186;2022-10-03T07:08:26;23.25;;;17.67;;
32228;SDS011;18717;48.034;11.186;2022-10-03T07:11:31;30.67;;;19.90;;
32228;SDS011;18717;48.034;11.186;2022-10-03T07:17:24;23.38;;;17.35;;
32228;SDS011;18717;48.034;11.186;2022-10-03T07:20:02;28.13;;;15.95;;
32228;SDS011;18717;48.034;11.186;2022-10-03T07:22:58;39.22;;;15.45;;
32228;SDS011;18717;48.034;11.186;2022-10-03T07:28:50;22.10;;;16.50;;
32228;SDS011;18717;48.034;11.186;2022-10-03T07:31:34;20.65;;;15.88;;
32228;SDS011;18717;48.034;11.186;2022-10-03T07:34:17;22.23;;;15.93;;
32228;SDS011;18717;48.034;11.186;2022-10-03T07:40:23;19.58;;;15.23;;
32228;SDS011;18717;48.034;11.186;2022-10-03T07:46:34;18.45;;;15.38;;
32228;SDS011;18717;48.034;11.186;2022-10-03T07:49:34;18.55;;;15.52;;
32228;SDS011;18717;48.034;11.186;2022-10-03T07:55:20;20.88;;;16.27;;
32228;SDS011;18717;48.034;11.186;2022-10-03T07:57:58;22.15;;;16.05;;
32228;SDS011;18717;48.034;11.186;2022-10-03T08:00:39;18.55;;;15.45;;
32228;SDS011;18717;48.034;11.186;2022-10-03T08:03:28;18.35;;;15.30;;
32228;SDS011;18717;48.034;11.186;2022-10-03T08:06:19;20.52;;;16.65;;
32228;SDS011;18717;48.034;11.186;2022-10-03T08:14:54;18.98;;;15.93;;
32228;SDS011;18717;48.034;11.186;2022-10-03T08:17:45;19.40;;;15.63;;
32228;SDS011;18717;48.034;11.186;2022-10-03T08:20:42;27.05;;;16.90;;
32228;SDS011;18717;48.034;11.186;2022-10-03T08:26:16;19.00;;;16.45;;
32228;SDS011;18717;48.034;11.186;2022-10-03T08:28:59;21.85;;;16.35;;
32228;SDS011;18717;48.034;11.186;2022-10-03T08:31:48;19.02;;;16.38;;
32228;SDS011;18717;48.034;11.186;2022-10-03T08:37:50;29.55;;;16.15;;
32228;SDS011;18717;48.034;11.186;2022-10-03T08:40:58;16.35;;;14.80;;
32228;SDS011;18717;48.034;11.186;2022-10-03T08:43:46;19.27;;;15.80;;
32228;SDS011;18717;48.034;11.186;2022-10-03T08:49:46;19.23;;;17.20;;
32228;SDS011;18717;48.034;11.186;2022-10-03T08:52:32;26.20;;;19.00;;
32228;SDS011;18717;48.034;11.186;2022-10-03T08:55:18;17.52;;;15.68;;
32228;SDS011;18717;48.034;11.186;2022-10-03T08:58:03;19.80;;;14.80;;
32228;SDS011;18717;48.034;11.186;2022-10-03T09:00:49;22.70;;;15.45;;
32228;SDS011;18717;48.034;11.186;2022-10-03T09:03:40;19.63;;;15.45;;
32228;SDS011;18717;48.034;11.186;2022-10-03T09:06:35;15.98;;;14.27;;
32228;SDS011;18717;48.034;11.186;2022-10-03T09:12:45;17.30;;;15.55;;
32228;SDS011;18717;48.034;11.186;2022-10-03T09:18:44;15.93;;;14.35;;
32228;SDS011;18717;48.034;11.186;2022-10-03T09:21:24;20.73;;;15.40;;
32228;SDS011;18717;48.034;11.186;2022-10-03T09:27:09;15.80;;;13.88;;
32228;SDS011;18717;48.034;11.186;2022-10-03T09:33:01;14.77;;;13.32;;
32228;SDS011;18717;48.034;11.186;2022-10-03T09:36:03;17.05;;;13.68;;
32228;SDS011;18717;48.034;11.186;2022-10-03T09:39:02;15.88;;;12.85;;
32228;SDS011;18717;48.034;11.186;2022-10-03T09:45:07;13.65;;;12.63;;
32228;SDS011;18717;48.034;11.186;2022-10-03T09:47:48;15.82;;;14.32;;
32228;SDS011;18717;48.034;11.186;2022-10-03T09:53:28;16.77;;;12.70;;
32228;SDS011;18717;48.034;11.186;2022-10-03T09:56:10;14.60;;;13.10;;
32228;SDS011;18717;48.034;11.186;2022-10-03T09:58:56;19.58;;;13.00;;
32228;SDS011;18717;48.034;11.186;2022-10-03T10:01:33;15.25;;;13.50;;
32228;SDS011;18717;48.034;11.186;2022-10-03T10:07:43;18.13;;;14.02;;
32228;SDS011;18717;48.034;11.186;2022-10-03T10:13:21;19.08;;;14.07;;
32228;SDS011;18717;48.034;11.186;2022-10-03T10:19:31;17.63;;;13.85;;
32228;SDS011;18717;48.034;11.186;2022-10-03T10:22:20;14.57;;;13.15;;
32228;SDS011;18717;48.034;11.186;2022-10-03T10:25:16;16.05;;;14.20;;
32228;SDS011;18717;48.034;11.186;2022-10-03T10:28:08;15.13;;;13.73;;
32228;SDS011;18717;48.034;11.186;2022-10-03T10:34:12;15.95;;;14.10;;
32228;SDS011;18717;48.034;11.186;2022-10-03T10:39:57;16.50;;;13.20;;
32228;SDS011;18717;48.034;11.186;2022-10-03T10:45:55;14.52;;;13.10;;
32228;SDS011;18717;48.034;11.186;2022-10-03T10:51:51;14.68;;;13.45;;
32228;SDS011;18717;48.034;11.186;2022-10-03T10:55:24;13.63;;;12.32;;
32228;SDS011;18717;48.034;11.186;2022-10-03T10:58:31;15.05;;;12.02;;
32228;SDS011;18717;48.034;11.186;2022-10-03T11:01:47;15.13;;;13.63;;
32228;SDS011;18717;48.034;11.186;2022-10-03T11:08:22;12.75;;;11.50;;
32228;SDS011;18717;48.034;11.186;2022-10-03T11:11:16;14.38;;;12.35;;
32228;SDS011;18717;48.034;11.186;2022-10-03T11:14:14;14.07;;;12.68;;
32228;SDS011;18717;48.034;11.186;2022-10-03T11:17:09;14.38;;;13.13;;
32228;SDS011;18717;48.034;11.186;2022-10-03T11:23:11;13.75;;;12.52;;
32228;SDS011;18717;48.034;11.186;2022-10-03T11:32:39;14.43;;;13.02;;
32228;SDS011;18717;48.034;11.186;2022-10-03T11:35:28;13.35;;;12.30;;
32228;SDS011;18717;48.034;11.186;2022-10-03T11:38:09;13.35;;;12.35;;
32228;SDS011;18717;48.034;11.186;2022-10-03T11:40:43;12.73;;;11.95;;
32228;SDS011;18717;48.034;11.186;2022-10-03T11:43:41;12.18;;;11.32;;
32228;SDS011;18717;48.034;11.186;2022-10-03T11:46:29;13.88;;;12.60;;
32228;SDS011;18717;48.034;11.186;2022-10-03T11:49:08;14.25;;;12.93;;
32228;SDS011;18717;48.034;11.186;2022-10-03T11:51:42;19.08;;;12.48;;
32228;SDS011;18717;48.034;11.186;2022-10-03T11:54:19;14.27;;;12.85;;
32228;SDS011;18717;48.034;11.186;2022-10-03T11:56:58;14.48;;;13.10;;
32228;SDS011;18717;48.034;11.186;2022-10-03T11:59:48;15.27;;;13.32;;
32228;SDS011;18717;48.034;11.186;2022-10-03T12:05:38;14.23;;;12.07;;
32228;SDS011;18717;48.034;11.186;2022-10-03T12:08:17;14.23;;;12.95;;
32228;SDS011;18717;48.034;11.186;2022-10-03T12:11:06;14.02;;;12.73;;
32228;SDS011;18717;48.034;11.186;2022-10-03T12:13:37;15.85;;;13.00;;
32228;SDS011;18717;48.034;11.186;2022-10-03T12:16:14;13.82;;;12.52;;
32228;SDS011;18717;48.034;11.186;2022-10-03T12:18:51;14.25;;;12.00;;
32228;SDS011;18717;48.034;11.186;2022-10-03T12:21:23;13.65;;;12.40;;
32228;SDS011;18717;48.034;11.186;2022-10-03T12:24:01;13.73;;;12.73;;
32228;SDS011;18717;48.034;11.186;2022-10-03T12:26:38;12.82;;;11.50;;
32228;SDS011;18717;48.034;11.186;2022-10-03T12:29:10;12.90;;;11.80;;
32228;SDS011;18717;48.034;11.186;2022-10-03T12:31:41;13.20;;;12.20;;
32228;SDS011;18717;48.034;11.186;2022-10-03T12:34:19;14.23;;;12.63;;
32228;SDS011;18717;48.034;11.186;2022-10-03T12:36:59;14.32;;;13.10;;
32228;SDS011;18717;48.034;11.186;2022-10-03T12:39:37;14.50;;;13.50;;
32228;SDS011;18717;48.034;11.186;2022-10-03T12:42:15;14.00;;;12.45;;
32228;SDS011;18717;48.034;11.186;2022-10-03T12:44:50;13.38;;;12.07;;
32228;SDS011;18717;48.034;11.186;2022-10-03T12:47:25;11.88;;;10.75;;
32228;SDS011;18717;48.034;11.186;2022-10-03T12:50:21;12.70;;;11.50;;
32228;SDS011;18717;48.034;11.186;2022-10-03T12:53:00;12.82;;;11.85;;
32228;SDS011;18717;48.034;11.186;2022-10-03T12:55:59;13.07;;;12.18;;
32228;SDS011;18717;48.034;11.186;2022-10-03T12:58:33;14.02;;;12.63;;
32228;SDS011;18717;48.034;11.186;2022-10-03T13:01:06;13.13;;;12.23;;
32228;SDS011;18717;48.034;11.186;2022-10-03T13:03:40;12.75;;;11.73;;
32228;SDS011;18717;48.034;11.186;2022-10-03T13:06:26;12.38;;;11.52;;
32228;SDS011;18717;48.034;11.186;2022-10-03T13:09:40;12.25;;;11.45;;
32228;SDS011;18717;48.034;11.186;2022-10-03T13:12:32;13.55;;;12.18;;
32228;SDS011;18717;48.034;11.186;2022-10-03T13:18:13;12.77;;;11.70;;
32228;SDS011;18717;48.034;11.186;2022-10-03T13:20:59;12.02;;;11.15;;
32228;SDS011;18717;48.034;11.186;2022-10-03T13:23:52;12.70;;;11.68;;
32228;SDS011;18717;48.034;11.186;2022-10-03T13:26:25;13.43;;;12.23;;
32228;SDS011;18717;48.034;11.186;2022-10-03T13:29:05;13.52;;;12.38;;
32228;SDS011;18717;48.034;11.186;2022-10-03T13:32:03;12.43;;;11.27;;
32228;SDS011;18717;48.034;11.186;2022-10-03T13:34:35;11.57;;;10.65;;
32228;SDS011;18717;48.034;11.186;2022-10-03T13:37:13;11.95;;;10.77;;
32228;SDS011;18717;48.034;11.186;2022-10-03T13:39:45;11.40;;;10.63;;
32228;SDS011;18717;48.034;11.186;2022-10-03T13:42:15;12.30;;;11.30;;
32228;SDS011;18717;48.034;11.186;2022-10-03T13:44:46;11.68;;;10.93;;
32228;SDS011;18717;48.034;11.186;2022-10-03T13:47:23;12.85;;;11.85;;
32228;SDS011;18717;48.034;11.186;2022-10-03T13:49:56;12.70;;;11.82;;
32228;SDS011;18717;48.034;11.186;2022-10-03T13:52:32;13.00;;;11.90;;
32228;SDS011;18717;48.034;11.186;2022-10-03T13:55:12;12.52;;;11.50;;
32228;SDS011;18717;48.034;11.186;2022-10-03T13:57:52;13.13;;;12.05;;
32228;SDS011;18717;48.034;11.186;2022-10-03T14:00:31;13.43;;;11.90;;
32228;SDS011;18717;48.034;11.186;2022-10-03T14:03:09;12.65;;;11.38;;
32228;SDS011;18717;48.034;11.186;2022-10-03T14:08:26;10.93;;;10.23;;
32228;SDS011;18717;48.034;11.186;2022-10-03T14:11:02;11.48;;;10.60;;
32228;SDS011;18717;48.034;11.186;2022-10-03T14:13:41;12.30;;;11.35;;
32228;SDS011;18717;48.034;11.186;2022-10-03T14:16:18;12.27;;;11.30;;
32228;SDS011;18717;48.034;11.186;2022-10-03T14:18:51;13.43;;;11.65;;
32228;SDS011;18717;48.034;11.186;2022-10-03T14:24:23;12.55;;;11.50;;
32228;SDS011;18717;48.034;11.186;2022-10-03T14:27:04;12.30;;;11.48;;
32228;SDS011;18717;48.034;11.186;2022-10-03T14:29:37;12.52;;;11.23;;
32228;SDS011;18717;48.034;11.186;2022-10-03T14:32:12;10.88;;;10.27;;
32228;SDS011;18717;48.034;11.186;2022-10-03T14:35:03;11.82;;;11.05;;
32228;SDS011;18717;48.034;11.186;2022-10-03T14:37:36;11.88;;;11.18;;
32228;SDS011;18717;48.034;11.186;2022-10-03T14:40:18;12.07;;;11.13;;
32228;SDS011;18717;48.034;11.186;2022-10-03T14:42:54;12.63;;;11.67;;
32228;SDS011;18717;48.034;11.186;2022-10-03T14:45:26;11.68;;;10.82;;
32228;SDS011;18717;48.034;11.186;2022-10-03T14:47:56;12.75;;;11.35;;
32228;SDS011;18717;48.034;11.186;2022-10-03T14:50:27;12.75;;;11.65;;
32228;SDS011;18717;48.034;11.186;2022-10-03T14:52:56;12.90;;;11.60;;
32228;SDS011;18717;48.034;11.186;2022-10-03T14:55:30;13.90;;;12.60;;
32228;SDS011;18717;48.034;11.186;2022-10-03T14:57:59;13.15;;;12.00;;
32228;SDS011;18717;48.034;11.186;2022-10-03T15:00:39;13.32;;;12.10;;
32228;SDS011;18717;48.034;11.186;2022-10-03T15:03:21;12.73;;;11.85;;
32228;SDS011;18717;48.034;11.186;2022-10-03T15:05:55;13.48;;;12.45;;
32228;SDS011;18717;48.034;11.186;2022-10-03T15:08:28;12.85;;;11.73;;
32228;SDS011;18717;48.034;11.186;2022-10-03T15:11:00;12.60;;;11.30;;
32228;SDS011;18717;48.034;11.186;2022-10-03T15:13:29;13.38;;;12.27;;
32228;SDS011;18717;48.034;11.186;2022-10-03T15:16:00;13.93;;;12.73;;
32228;SDS011;18717;48.034;11.186;2022-10-03T15:18:28;14.60;;;13.18;;
32228;SDS011;18717;48.034;11.186;2022-10-03T15:20:57;13.23;;;12.13;;
32228;SDS011;18717;48.034;11.186;2022-10-03T15:23:26;12.77;;;11.48;;
32228;SDS011;18717;48.034;11.186;2022-10-03T15:25:58;15.30;;;12.10;;
32228;SDS011;18717;48.034;11.186;2022-10-03T15:28:29;12.80;;;11.57;;
32228;SDS011;18717;48.034;11.186;2022-10-03T15:31:06;12.95;;;11.63;;
32228;SDS011;18717;48.034;11.186;2022-10-03T15:33:36;12.30;;;11.25;;
32228;SDS011;18717;48.034;11.186;2022-10-03T15:36:06;14.10;;;12.48;;
32228;SDS011;18717;48.034;11.186;2022-10-03T15:38:37;14.82;;;13.10;;
32228;SDS011;18717;48.034;11.186;2022-10-03T15:41:08;16.65;;;13.25;;
32228;SDS011;18717;48.034;11.186;2022-10-03T15:43:40;13.18;;;12.00;;
32228;SDS011;18717;48.034;11.186;2022-10-03T15:46:13;14.07;;;12.98;;
32228;SDS011;18717;48.034;11.186;2022-10-03T15:48:49;12.93;;;11.80;;
32228;SDS011;18717;48.034;11.186;2022-10-03T15:51:21;14.60;;;12.33;;
32228;SDS011;18717;48.034;11.186;2022-10-03T15:53:52;14.05;;;12.60;;
32228;SDS011;18717;48.034;11.186;2022-10-03T15:56:26;12.65;;;11.75;;
32228;SDS011;18717;48.034;11.186;2022-10-03T15:58:57;14.55;;;12.93;;
32228;SDS011;18717;48.034;11.186;2022-10-03T16:01:30;12.65;;;11.32;;
32228;SDS011;18717;48.034;11.186;2022-10-03T16:04:00;14.43;;;12.60;;
32228;SDS011;18717;48.034;11.186;2022-10-03T16:06:32;12.70;;;11.80;;
32228;SDS011;18717;48.034;11.186;2022-10-03T16:09:06;14.18;;;12.75;;
32228;SDS011;18717;48.034;11.186;2022-10-03T16:11:42;13.30;;;12.27;;
32228;SDS011;18717;48.034;11.186;2022-10-03T16:14:15;13.32;;;12.00;;
32228;SDS011;18717;48.034;11.186;2022-10-03T16:16:45;12.85;;;11.73;;
32228;SDS011;18717;48.034;11.186;2022-10-03T16:19:20;13.13;;;12.13;;
32228;SDS011;18717;48.034;11.186;2022-10-03T16:21:53;13.55;;;12.30;;
32228;SDS011;18717;48.034;11.186;2022-10-03T16:24:26;12.75;;;11.65;;
32228;SDS011;18717;48.034;11.186;2022-10-03T16:27:00;13.48;;;12.20;;
32228;SDS011;18717;48.034;11.186;2022-10-03T16:29:33;11.80;;;10.80;;
32228;SDS011;18717;48.034;11.186;2022-10-03T16:32:03;13.27;;;12.07;;
32228;SDS011;18717;48.034;11.186;2022-10-03T16:34:35;12.77;;;11.50;;
32228;SDS011;18717;48.034;11.186;2022-10-03T16:37:14;19.20;;;11.68;;
32228;SDS011;18717;48.034;11.186;2022-10-03T16:39:44;14.60;;;13.20;;
32228;SDS011;18717;48.034;11.186;2022-10-03T16:42:20;14.95;;;13.32;;
32228;SDS011;18717;48.034;11.186;2022-10-03T16:44:51;14.45;;;12.10;;
32228;SDS011;18717;48.034;11.186;2022-10-03T16:47:27;13.50;;;12.07;;
32228;SDS011;18717;48.034;11.186;2022-10-03T16:49:57;13.45;;;12.05;;
32228;SDS011;18717;48.034;11.186;2022-10-03T16:52:44;12.82;;;11.57;;
32228;SDS011;18717;48.034;11.186;2022-10-03T16:55:15;14.20;;;11.05;;
32228;SDS011;18717;48.034;11.186;2022-10-03T16:57:46;12.52;;;11.40;;
32228;SDS011;18717;48.034;11.186;2022-10-03T17:00:19;11.82;;;10.93;;
32228;SDS011;18717;48.034;11.186;2022-10-03T17:02:48;19.75;;;12.45;;
32228;SDS011;18717;48.034;11.186;2022-10-03T17:05:16;15.10;;;13.77;;
32228;SDS011;18717;48.034;11.186;2022-10-03T17:07:46;22.52;;;16.35;;
32228;SDS011;18717;48.034;11.186;2022-10-03T17:10:30;24.73;;;17.95;;
32228;SDS011;18717;48.034;11.186;2022-10-03T17:13:04;13.68;;;11.98;;
32228;SDS011;18717;48.034;11.186;2022-10-03T17:15:43;17.83;;;15.48;;
32228;SDS011;18717;48.034;11.186;2022-10-03T17:18:16;15.68;;;14.35;;
32228;SDS011;18717;48.034;11.186;2022-10-03T17:20:51;13.82;;;12.63;;
32228;SDS011;18717;48.034;11.186;2022-10-03T17:23:25;15.23;;;13.43;;
32228;SDS011;18717;48.034;11.186;2022-10-03T17:25:59;15.63;;;12.50;;
32228;SDS011;18717;48.034;11.186;2022-10-03T17:28:33;14.32;;;13.00;;
32228;SDS011;18717;48.034;11.186;2022-10-03T17:31:05;18.42;;;12.98;;
32228;SDS011;18717;48.034;11.186;2022-10-03T17:33:44;15.73;;;14.07;;
32228;SDS011;18717;48.034;11.186;2022-10-03T17:36:26;15.63;;;13.25;;
32228;SDS011;18717;48.034;11.186;2022-10-03T17:39:34;17.77;;;12.93;;
32228;SDS011;18717;48.034;11.186;2022-10-03T17:42:07;15.38;;;13.20;;
32228;SDS011;18717;48.034;11.186;2022-10-03T17:44:49;15.05;;;13.07;;
32228;SDS011;18717;48.034;11.186;2022-10-03T17:47:22;15.00;;;12.20;;
32228;SDS011;18717;48.034;11.186;2022-10-03T17:49:57;19.08;;;12.25;;
32228;SDS011;18717;48.034;11.186;2022-10-03T17:52:27;13.85;;;11.68;;
32228;SDS011;18717;48.034;11.186;2022-10-03T17:54:57;12.90;;;11.90;;
32228;SDS011;18717;48.034;11.186;2022-10-03T17:57:27;13.93;;;11.68;;
32228;SDS011;18717;48.034;11.186;2022-10-03T18:00:00;12.48;;;11.27;;
32228;SDS011;18717;48.034;11.186;2022-10-03T18:02:33;12.25;;;11.05;;
32228;SDS011;18717;48.034;11.186;2022-10-03T18:05:09;12.50;;;11.15;;
32228;SDS011;18717;48.034;11.186;2022-10-03T18:07:39;13.70;;;12.15;;
32228;SDS011;18717;48.034;11.186;2022-10-03T18:10:19;13.77;;;12.68;;
32228;SDS011;18717;48.034;11.186;2022-10-03T18:12:48;13.43;;;11.98;;
32228;SDS011;18717;48.034;11.186;2022-10-03T18:15:26;13.90;;;12.55;;